Time;durP1;ratioP1;P1;durP2;ratioP2;P2;SDS_P1;SDS_P2;PMS_P1;PMS_P2;Temp;Humidity;BMP_temperature;BMP_pressure;BME280_temperature;BME280_humidity;BME280_pressure;Samples;Min_cycle;Max_cycle;Signal;HPM_P1;HPM_P2
2022/10/21 00:02:04;;;;;;;6.30;5.70;;;;;;;13.89;63.26;100954.81;4904128;28;96982;-46
2022/10/21 00:04:31;;;;;;;7.43;6.23;;;;;;;13.89;63.45;100955.53;4903136;28;97142;-46
2022/10/21 00:06:56;;;;;;;5.80;4.83;;;;;;;13.91;63.44;100957.81;4899400;28;97819;-46
2022/10/21 00:09:21;;;;;;;5.93;5.43;;;;;;;13.91;63.46;100950.25;4903573;28;96942;-47
2022/10/21 00:11:46;;;;;;;6.93;5.70;;;;;;;13.94;63.50;100945.72;4903025;28;97532;-46
2022/10/21 00:14:12;;;;;;;6.70;5.60;;;;;;;13.95;63.50;100947.25;4902410;28;99919;-46
2022/10/21 00:16:37;;;;;;;11.60;6.30;;;;;;;13.95;63.62;100936.19;4906021;28;97179;-46
2022/10/21 00:19:02;;;;;;;6.40;5.43;;;;;;;13.96;63.50;100929.38;4904095;28;97253;-46
2022/10/21 00:21:28;;;;;;;5.80;4.80;;;;;;;13.95;63.45;100923.13;4901865;28;96973;-46
2022/10/21 00:23:53;;;;;;;5.90;5.30;;;;;;;13.94;63.63;100940.19;4904483;28;97528;-46
2022/10/21 00:26:19;;;;;;;8.40;5.80;;;;;;;13.94;63.47;100929.13;4907083;28;101018;-46
2022/10/21 00:28:45;;;;;;;6.30;5.13;;;;;;;13.94;63.46;100915.31;4905108;28;97364;-46
2022/10/21 00:31:13;;;;;;;10.33;5.40;;;;;;;13.93;63.43;100911.81;4903575;28;97527;-46
2022/10/21 00:33:39;;;;;;;7.30;5.30;;;;;;;13.90;63.39;100914.81;4901162;28;98785;-46
2022/10/21 00:36:06;;;;;;;9.93;5.07;;;;;;;13.88;63.67;100909.03;4905926;28;97106;-46
2022/10/21 00:38:33;;;;;;;8.13;5.87;;;;;;;13.86;63.54;100900.50;4904372;28;97197;-46
2022/10/21 00:40:59;;;;;;;7.40;5.10;;;;;;;13.86;63.56;100897.75;4903605;28;96954;-46
2022/10/21 00:43:25;;;;;;;6.23;4.83;;;;;;;13.84;63.54;100897.50;4901361;28;97386;-47
2022/10/21 00:45:58;;;;;;;5.63;4.73;;;;;;;13.83;63.87;100896.75;4902056;28;102635;-46
2022/10/21 00:48:31;;;;;;;8.50;5.00;;;;;;;13.80;63.82;100891.50;4906024;28;97784;-46
2022/10/21 00:51:05;;;;;;;6.30;5.70;;;;;;;13.79;63.84;100889.97;4902351;28;97332;-49
2022/10/21 00:53:32;;;;;;;5.63;5.07;;;;;;;13.75;63.57;100881.94;4901316;28;97294;-47
2022/10/21 00:56:04;;;;;;;6.20;5.60;;;;;;;13.71;63.51;100873.16;4903947;28;97029;-46
2022/10/21 00:58:31;;;;;;;6.60;5.73;;;;;;;13.68;63.80;100868.66;4904382;28;98060;-46
2022/10/21 01:00:59;;;;;;;5.83;4.40;;;;;;;13.67;63.69;100867.16;4900681;28;97478;-46
2022/10/21 01:03:26;;;;;;;6.27;5.37;;;;;;;13.66;63.61;100868.41;4902443;28;98787;-46
2022/10/21 01:05:53;;;;;;;7.53;5.13;;;;;;;13.66;63.75;100867.66;4902825;28;98576;-46
2022/10/21 01:08:19;;;;;;;4.60;3.83;;;;;;;13.64;63.57;100868.16;4902285;28;96710;-46
2022/10/21 01:10:45;;;;;;;9.37;5.50;;;;;;;13.64;63.74;100861.88;4899173;28;96797;-46
2022/10/21 01:13:13;;;;;;;4.73;4.27;;;;;;;13.65;63.76;100860.63;4910620;28;97145;-46
2022/10/21 01:15:58;;;;;;;8.43;6.10;;;;;;;13.63;63.98;100858.34;4908267;28;97456;-46
2022/10/21 01:18:33;;;;;;;6.57;5.73;;;;;;;13.60;63.98;100853.84;4904810;28;97534;-46
2022/10/21 01:21:07;;;;;;;6.70;6.00;;;;;;;13.58;63.79;100852.84;4904889;28;97011;-46
2022/10/21 01:23:44;;;;;;;7.10;5.80;;;;;;;13.54;63.88;100856.63;4906644;28;97088;-46
2022/10/21 01:26:34;;;;;;;8.83;6.30;;;;;;;13.52;64.19;100848.09;4907178;28;97066;-46
2022/10/21 01:29:09;;;;;;;7.30;5.60;;;;;;;13.52;64.34;100847.31;4908332;28;97074;-46
2022/10/21 01:31:44;;;;;;;7.20;5.93;;;;;;;13.54;64.18;100851.09;4906788;28;97546;-46
2022/10/21 01:34:22;;;;;;;6.73;4.90;;;;;;;13.55;64.26;100832.50;4904358;28;97223;-47
2022/10/21 01:37:42;;;;;;;7.27;6.17;;;;;;;13.50;64.80;100831.25;4904940;28;96956;-46
2022/10/21 01:40:17;;;;;;;10.13;4.90;;;;;;;13.54;64.16;100831.00;4867512;28;97403;-48
2022/10/21 01:42:51;;;;;;;14.13;5.10;;;;;;;13.57;64.18;100826.47;4906124;28;97170;-49
2022/10/21 01:45:34;;;;;;;6.50;5.67;;;;;;;13.59;64.32;100823.94;4902866;28;97674;-49
2022/10/21 01:48:29;;;;;;;6.80;4.60;;;;;;;13.53;64.78;100832.25;4901127;28;97310;-46
2022/10/21 01:51:01;;;;;;;5.87;5.10;;;;;;;13.53;64.36;100810.16;4904075;28;98268;-46
2022/10/21 01:53:29;;;;;;;6.77;5.73;;;;;;;13.51;64.44;100812.66;4906973;28;96823;-48
2022/10/21 01:55:57;;;;;;;5.73;5.17;;;;;;;13.49;64.17;100802.13;4905375;28;97744;-48
2022/10/21 01:58:27;;;;;;;8.03;5.70;;;;;;;13.47;64.23;100801.13;4905937;28;97573;-45
2022/10/21 02:00:55;;;;;;;7.90;5.10;;;;;;;13.46;64.23;100803.13;4905637;28;97026;-45
2022/10/21 02:03:26;;;;;;;5.47;4.97;;;;;;;13.46;64.24;100805.91;4903463;28;97531;-47
2022/10/21 02:05:52;;;;;;;5.63;5.13;;;;;;;13.44;64.27;100794.59;4904590;28;97362;-47
2022/10/21 02:08:17;;;;;;;6.47;5.87;;;;;;;13.44;64.43;100786.31;4904603;28;97143;-45
2022/10/21 02:10:47;;;;;;;6.33;5.03;;;;;;;13.45;64.49;100790.56;4905622;28;96818;-45
2022/10/21 02:13:19;;;;;;;6.43;5.60;;;;;;;13.47;64.37;100785.31;4905778;28;97325;-47
2022/10/21 02:15:45;;;;;;;7.53;6.07;;;;;;;13.49;64.28;100782.03;4907509;28;97166;-46
2022/10/21 02:18:23;;;;;;;10.30;5.60;;;;;;;13.49;64.71;100777.25;4905390;28;97216;-46
2022/10/21 02:20:54;;;;;;;4.90;4.50;;;;;;;13.49;64.54;100771.72;4905788;28;97310;-47
2022/10/21 02:23:27;;;;;;;6.13;5.20;;;;;;;13.51;64.23;100783.03;4905150;28;97280;-44
2022/10/21 02:25:52;;;;;;;6.00;5.07;;;;;;;13.54;64.44;100773.69;4906308;28;97655;-46
2022/10/21 02:28:18;;;;;;;7.30;5.53;;;;;;;13.56;64.52;100769.69;4905087;28;96750;-46
2022/10/21 02:31:02;;;;;;;6.77;5.00;;;;;;;13.58;64.68;100767.91;4907046;28;96930;-44
2022/10/21 02:33:50;;;;;;;8.47;5.23;;;;;;;13.59;65.03;100782.47;4904122;28;97758;-47
2022/10/21 02:36:27;;;;;;;5.83;4.53;;;;;;;13.61;64.66;100772.41;4903469;28;97543;-48
2022/10/21 02:39:00;;;;;;;7.83;5.80;;;;;;;13.62;64.52;100773.16;4907064;28;98046;-47
2022/10/21 02:41:28;;;;;;;6.03;5.03;;;;;;;13.63;64.53;100760.88;4902777;28;97303;-46
2022/10/21 02:43:59;;;;;;;8.50;5.50;;;;;;;13.64;64.73;100754.81;4902386;28;96947;-51
2022/10/21 02:46:30;;;;;;;6.30;5.30;;;;;;;13.63;64.85;100747.03;4904072;28;97273;-45
2022/10/21 02:48:55;;;;;;;6.83;5.30;;;;;;;13.65;64.65;100758.34;4903827;28;98811;-46
2022/10/21 02:51:20;;;;;;;11.33;5.40;;;;;;;13.68;64.75;100765.59;4902695;28;100529;-45
2022/10/21 02:53:45;;;;;;;6.10;5.23;;;;;;;13.69;64.56;100756.81;4902659;28;97239;-45
2022/10/21 02:56:11;;;;;;;6.93;5.03;;;;;;;13.70;64.53;100755.53;4904555;28;103899;-46
2022/10/21 02:58:36;;;;;;;7.30;6.03;;;;;;;13.71;64.60;100770.09;4905373;28;97154;-52
2022/10/21 03:01:02;;;;;;;7.17;5.47;;;;;;;13.73;64.58;100762.06;4903964;28;97408;-46
2022/10/21 03:03:28;;;;;;;11.50;6.40;;;;;;;13.75;64.62;100762.28;4903229;28;96789;-47
2022/10/21 03:05:54;;;;;;;6.97;5.37;;;;;;;13.75;64.77;100765.06;4904458;28;97785;-50
2022/10/21 03:08:19;;;;;;;7.30;6.10;;;;;;;13.74;64.78;100758.03;4902677;28;101549;-47
2022/10/21 03:10:48;;;;;;;6.30;5.47;;;;;;;13.75;64.92;100752.00;4901484;28;108314;-45
2022/10/21 03:13:14;;;;;;;8.83;5.97;;;;;;;13.74;64.84;100755.28;4901906;28;97298;-44
2022/10/21 03:15:39;;;;;;;9.43;5.87;;;;;;;13.72;64.73;100752.25;4902988;28;113253;-48
2022/10/21 03:18:04;;;;;;;12.93;5.97;;;;;;;13.71;64.75;100736.94;4902997;28;116077;-49
2022/10/21 03:20:30;;;;;;;14.73;6.03;;;;;;;13.71;64.70;100748.00;4904249;28;98291;-45
2022/10/21 03:22:55;;;;;;;6.40;4.97;;;;;;;13.71;64.71;100736.94;4901351;28;105619;-46
2022/10/21 03:25:20;;;;;;;6.20;5.40;;;;;;;13.72;64.95;100733.66;4905714;28;108445;-47
2022/10/21 03:27:45;;;;;;;6.37;5.73;;;;;;;13.74;64.73;100735.91;4904526;28;113958;-45
2022/10/21 03:30:11;;;;;;;9.10;5.03;;;;;;;13.71;64.75;100734.16;4906676;28;97495;-45
2022/10/21 03:32:36;;;;;;;6.43;5.53;;;;;;;13.68;64.74;100738.69;4903787;28;97179;-49
2022/10/21 03:35:02;;;;;;;9.70;5.70;;;;;;;13.64;64.76;100726.41;4904017;28;97089;-46
2022/10/21 03:37:27;;;;;;;8.53;6.20;;;;;;;13.60;64.79;100723.16;4898346;28;97488;-45
2022/10/21 03:39:53;;;;;;;7.77;5.90;;;;;;;13.59;64.97;100730.69;4901680;28;101528;-46
2022/10/21 03:42:18;;;;;;;8.17;5.53;;;;;;;13.56;64.89;100726.22;4903338;28;118575;-44
2022/10/21 03:44:43;;;;;;;12.20;5.93;;;;;;;13.56;64.81;100708.88;4904529;28;97319;-46
2022/10/21 03:47:09;;;;;;;7.07;5.37;;;;;;;13.55;65.05;100705.34;4899710;28;110001;-46
2022/10/21 03:49:34;;;;;;;7.37;5.60;;;;;;;13.57;64.77;100711.13;4905612;28;97304;-48
2022/10/21 03:51:59;;;;;;;7.07;5.43;;;;;;;13.59;65.03;100710.59;4903629;28;97702;-48
2022/10/21 03:54:25;;;;;;;8.07;5.63;;;;;;;13.60;64.76;100701.81;4902823;28;96797;-46
2022/10/21 03:56:50;;;;;;;10.20;5.80;;;;;;;13.65;64.96;100705.81;4895790;28;105388;-45
2022/10/21 03:59:15;;;;;;;5.07;4.57;;;;;;;13.66;64.94;100713.59;4898160;28;97356;-46
2022/10/21 04:01:41;;;;;;;8.53;5.77;;;;;;;13.70;64.80;100707.78;4896206;28;112222;-49
2022/10/21 04:04:06;;;;;;;6.20;5.60;;;;;;;13.72;64.98;100705.25;4896543;28;97504;-50
2022/10/21 04:06:31;;;;;;;6.10;5.50;;;;;;;13.75;65.02;100716.03;4894569;28;97269;-45
2022/10/21 04:08:57;;;;;;;7.13;5.87;;;;;;;13.79;65.23;100710.22;4895441;28;97728;-45
2022/10/21 04:11:22;;;;;;;5.80;5.27;;;;;;;13.83;64.98;100705.16;4901388;28;97489;-45
2022/10/21 04:13:47;;;;;;;7.67;5.60;;;;;;;13.88;65.04;100705.16;4901509;28;97522;-46
2022/10/21 04:16:15;;;;;;;10.00;4.90;;;;;;;13.91;65.02;100708.91;4900442;28;108931;-49
2022/10/21 04:18:41;;;;;;;10.53;5.60;;;;;;;13.94;65.19;100705.09;4900051;28;96941;-50
2022/10/21 04:21:07;;;;;;;13.00;5.93;;;;;;;13.95;65.31;100690.00;4905496;28;96795;-47
2022/10/21 04:23:33;;;;;;;6.80;5.60;;;;;;;13.96;65.21;100683.19;4904169;28;97774;-47
2022/10/21 04:25:58;;;;;;;7.77;5.03;;;;;;;13.97;65.50;100679.94;4903291;28;97190;-47
2022/10/21 04:28:24;;;;;;;6.53;4.87;;;;;;;13.98;65.53;100677.91;4902961;28;99534;-46
2022/10/21 04:30:49;;;;;;;9.80;5.80;;;;;;;13.99;65.36;100682.19;4903450;28;97049;-46
2022/10/21 04:33:14;;;;;;;6.63;5.80;;;;;;;14.01;65.50;100674.13;4905457;28;97857;-46
2022/10/21 04:35:40;;;;;;;6.23;4.90;;;;;;;14.01;65.57;100672.09;4905067;28;96839;-48
2022/10/21 04:38:05;;;;;;;9.10;6.27;;;;;;;14.04;64.97;100670.31;4902015;28;97294;-47
2022/10/21 04:40:30;;;;;;;5.80;5.20;;;;;;;14.04;65.45;100665.53;4903828;28;96938;-47
2022/10/21 04:42:56;;;;;;;6.67;5.13;;;;;;;14.07;65.55;100670.03;4902417;28;98891;-47
2022/10/21 04:45:21;;;;;;;8.30;5.07;;;;;;;14.08;65.54;100663.25;4903384;28;97693;-46
2022/10/21 04:47:46;;;;;;;7.50;5.60;;;;;;;14.13;65.64;100667.25;4908792;28;109891;-48
2022/10/21 04:50:12;;;;;;;22.30;6.50;;;;;;;14.15;65.60;100659.16;4907400;28;97239;-46
2022/10/21 04:52:38;;;;;;;10.03;5.80;;;;;;;14.15;65.49;100648.81;4907390;28;96931;-47
2022/10/21 04:55:04;;;;;;;6.77;5.10;;;;;;;14.17;65.41;100651.84;4911022;28;97298;-47
2022/10/21 04:57:29;;;;;;;7.47;5.67;;;;;;;14.21;65.52;100659.88;4910964;28;96764;-47
2022/10/21 04:59:55;;;;;;;5.63;5.00;;;;;;;14.23;65.58;100665.63;4909038;28;97642;-47
2022/10/21 05:02:20;;;;;;;6.10;5.60;;;;;;;14.25;65.46;100654.78;4908227;28;98672;-46
2022/10/21 05:04:46;;;;;;;10.00;5.43;;;;;;;14.26;65.40;100664.59;4907235;28;115455;-46
2022/10/21 05:07:11;;;;;;;8.30;6.47;;;;;;;14.27;65.51;100653.00;4909938;28;96728;-46
2022/10/21 05:09:36;;;;;;;7.90;5.23;;;;;;;14.29;65.56;100658.03;4908215;28;96905;-47
2022/10/21 05:12:02;;;;;;;9.60;5.60;;;;;;;14.31;65.51;100658.28;4908294;28;97571;-47
2022/10/21 05:14:27;;;;;;;7.00;5.67;;;;;;;14.33;65.57;100650.19;4907981;28;97828;-47
2022/10/21 05:16:52;;;;;;;7.83;5.67;;;;;;;14.35;65.77;100638.63;4909614;28;110092;-47
2022/10/21 05:19:18;;;;;;;7.23;5.20;;;;;;;14.33;65.59;100636.38;4909853;28;97321;-47
2022/10/21 05:21:45;;;;;;;6.83;6.23;;;;;;;14.34;65.73;100632.34;4908475;28;108550;-47
2022/10/21 05:24:12;;;;;;;8.67;5.60;;;;;;;14.36;65.62;100623.50;4910874;28;97345;-46
2022/10/21 05:26:37;;;;;;;5.47;4.97;;;;;;;14.37;65.77;100614.72;4901272;28;97332;-46
2022/10/21 05:29:02;;;;;;;21.10;6.23;;;;;;;14.37;65.37;100613.94;4910289;28;96870;-46
2022/10/21 05:31:28;;;;;;;5.93;5.13;;;;;;;14.36;65.85;100617.97;4909830;28;98026;-46
2022/10/21 05:33:53;;;;;;;17.17;5.40;;;;;;;14.37;65.81;100613.94;4908936;28;99592;-46
2022/10/21 05:36:19;;;;;;;8.27;5.57;;;;;;;14.35;65.89;100603.38;4909434;28;97240;-47
2022/10/21 05:38:44;;;;;;;6.50;5.43;;;;;;;14.35;65.73;100603.38;4909147;28;99482;-46
2022/10/21 05:41:09;;;;;;;5.40;4.60;;;;;;;14.36;65.73;100604.13;4909784;28;97150;-46
2022/10/21 05:43:35;;;;;;;6.07;5.50;;;;;;;14.36;65.72;100604.13;4907258;28;97257;-46
2022/10/21 05:46:01;;;;;;;6.30;5.70;;;;;;;14.35;65.85;100597.13;4908401;28;97091;-46
2022/10/21 05:48:26;;;;;;;7.40;5.53;;;;;;;14.32;65.66;100587.09;4907325;28;98903;-46
2022/10/21 05:50:53;;;;;;;6.80;5.37;;;;;;;14.26;65.65;100584.34;4905041;28;97221;-47
2022/10/21 05:53:19;;;;;;;6.40;5.80;;;;;;;14.23;65.82;100590.91;4911410;28;97045;-46
2022/10/21 05:55:53;;;;;;;5.70;5.10;;;;;;;14.21;66.09;100596.22;4908434;28;99599;-47
2022/10/21 05:58:18;;;;;;;6.60;5.40;;;;;;;14.19;65.89;100593.22;4904966;28;97821;-47
2022/10/21 06:00:44;;;;;;;8.27;5.50;;;;;;;14.20;65.71;100605.78;4902872;28;121274;-46
2022/10/21 06:03:09;;;;;;;5.70;5.20;;;;;;;14.19;66.10;100602.28;4906822;28;117858;-47
2022/10/21 06:05:34;;;;;;;6.47;4.93;;;;;;;14.17;65.95;100602.06;4902593;28;116378;-46
2022/10/21 06:08:00;;;;;;;6.67;5.63;;;;;;;14.18;65.95;100619.38;4908291;28;112090;-47
2022/10/21 06:10:25;;;;;;;8.00;5.07;;;;;;;14.17;65.89;100606.84;4904369;28;97906;-47
2022/10/21 06:12:50;;;;;;;12.83;4.83;;;;;;;14.18;65.93;100619.38;4906452;28;97748;-47
2022/10/21 06:15:16;;;;;;;6.10;5.50;;;;;;;14.19;65.84;100631.97;4902529;28;96714;-45
2022/10/21 06:17:41;;;;;;;7.30;6.30;;;;;;;14.19;66.05;100624.41;4903611;28;97043;-50
2022/10/21 06:20:07;;;;;;;6.77;4.93;;;;;;;14.23;65.84;100633.19;4904493;28;107269;-47
2022/10/21 06:22:32;;;;;;;8.27;5.80;;;;;;;14.26;65.95;100645.97;4902831;28;97448;-45
2022/10/21 06:24:57;;;;;;;8.67;6.23;;;;;;;14.30;66.03;100642.97;4906113;28;96990;-47
2022/10/21 06:27:23;;;;;;;6.00;5.00;;;;;;;14.31;66.09;100644.44;4904624;28;97074;-47
2022/10/21 06:29:48;;;;;;;7.57;5.70;;;;;;;14.33;65.92;100636.38;4904695;28;97418;-47
2022/10/21 06:32:13;;;;;;;7.83;5.30;;;;;;;14.32;66.17;100637.66;4902759;28;97069;-47
2022/10/21 06:34:39;;;;;;;7.07;6.07;;;;;;;14.34;65.96;100637.88;4903038;28;97332;-45
2022/10/21 06:37:04;;;;;;;5.70;5.10;;;;;;;14.36;66.03;100651.19;4894786;28;97237;-47
2022/10/21 06:39:29;;;;;;;7.97;6.00;;;;;;;14.35;65.96;100655.97;4903107;28;111620;-48
2022/10/21 06:41:55;;;;;;;6.17;5.47;;;;;;;14.34;65.96;100656.50;4903819;28;97291;-46
2022/10/21 06:44:20;;;;;;;5.70;4.97;;;;;;;14.32;66.03;100648.72;4906167;28;97722;-47
2022/10/21 06:46:45;;;;;;;5.97;4.97;;;;;;;14.32;66.08;100661.81;4899315;28;109053;-45
2022/10/21 06:49:11;;;;;;;5.30;4.80;;;;;;;14.33;66.13;100666.81;4905507;28;114402;-47
2022/10/21 06:51:36;;;;;;;6.00;5.40;;;;;;;14.35;66.10;100661.50;4905716;28;97111;-47
2022/10/21 06:54:01;;;;;;;8.13;6.07;;;;;;;14.35;66.13;100669.06;4907290;28;100132;-45
2022/10/21 06:56:27;;;;;;;5.70;5.17;;;;;;;14.40;65.96;100671.03;4902634;28;97257;-45
2022/10/21 06:58:55;;;;;;;5.70;5.10;;;;;;;14.42;66.05;100663.72;4907579;28;97377;-45
2022/10/21 07:01:26;;;;;;;7.53;5.57;;;;;;;14.43;66.11;100673.53;4903133;28;97105;-50
2022/10/21 07:03:52;;;;;;;5.93;4.90;;;;;;;14.45;65.94;100665.44;4905364;28;96812;-45
2022/10/21 07:06:18;;;;;;;11.13;5.50;;;;;;;14.44;66.01;100661.16;4906253;28;97204;-44
2022/10/21 07:08:43;;;;;;;8.47;5.47;;;;;;;14.49;66.06;100676.97;4902073;28;97687;-46
2022/10/21 07:11:10;;;;;;;5.97;4.63;;;;;;;14.51;66.11;100666.13;4901087;28;97316;-44
2022/10/21 07:13:36;;;;;;;5.90;4.73;;;;;;;14.52;66.09;100672.44;4901497;28;98389;-46
2022/10/21 07:16:05;;;;;;;16.70;5.30;;;;;;;14.55;66.28;100682.44;4905970;28;97394;-49
2022/10/21 07:18:31;;;;;;;5.50;4.90;;;;;;;14.58;66.24;100687.72;4905159;28;98033;-45
2022/10/21 07:21:03;;;;;;;9.43;5.43;;;;;;;14.63;66.39;100688.94;4905087;28;97116;-44
2022/10/21 07:23:28;;;;;;;6.40;5.03;;;;;;;14.66;66.28;100691.41;4901209;28;97194;-51
2022/10/21 07:25:54;;;;;;;6.00;5.03;;;;;;;14.70;66.31;100683.53;4905107;28;105637;-49
2022/10/21 07:28:19;;;;;;;6.20;5.10;;;;;;;14.73;66.30;100690.81;4904397;28;114066;-46
2022/10/21 07:30:44;;;;;;;5.33;4.83;;;;;;;14.77;66.18;100696.81;4905231;28;97403;-47
2022/10/21 07:33:10;;;;;;;7.30;5.23;;;;;;;14.79;66.37;100687.97;4905157;28;97063;-46
2022/10/21 07:35:36;;;;;;;6.43;5.60;;;;;;;14.82;66.33;100696.03;4904894;28;97358;-45
2022/10/21 07:38:02;;;;;;;6.50;4.97;;;;;;;14.86;66.28;100690.94;4904356;28;97470;-45
2022/10/21 07:40:28;;;;;;;8.17;5.10;;;;;;;14.87;66.20;100686.16;4906798;28;96866;-45
2022/10/21 07:42:54;;;;;;;6.23;5.20;;;;;;;14.90;66.37;100694.16;4899420;28;97067;-47
2022/10/21 07:45:20;;;;;;;7.87;5.20;;;;;;;14.92;66.43;100683.31;4902886;28;97049;-47
2022/10/21 07:47:46;;;;;;;5.40;4.90;;;;;;;14.92;66.32;100686.06;4902140;28;97077;-48
2022/10/21 07:50:11;;;;;;;8.10;5.30;;;;;;;14.96;66.43;100683.75;4906863;28;96966;-48
2022/10/21 07:52:44;;;;;;;12.33;5.97;;;;;;;14.97;66.54;100687.28;4902502;28;97315;-45
2022/10/21 07:55:13;;;;;;;6.03;5.40;;;;;;;14.98;66.60;100689.53;4906090;28;97420;-46
2022/10/21 07:57:40;;;;;;;13.33;5.20;;;;;;;14.99;66.50;100693.81;4902190;28;97060;-46
2022/10/21 08:00:07;;;;;;;6.13;5.17;;;;;;;15.01;66.50;100685.72;4904299;28;98591;-49
2022/10/21 08:02:32;;;;;;;7.70;4.50;;;;;;;15.07;66.53;100690.44;4903355;28;97158;-46
2022/10/21 08:04:57;;;;;;;6.70;4.40;;;;;;;15.12;66.54;100673.75;4902573;28;97241;-45
2022/10/21 08:07:23;;;;;;;5.27;4.77;;;;;;;15.16;66.44;100673.47;4902352;28;98516;-47
2022/10/21 08:09:48;;;;;;;6.67;5.10;;;;;;;15.20;66.34;100671.88;4897994;28;113756;-49
2022/10/21 08:12:13;;;;;;;8.03;5.20;;;;;;;15.24;66.50;100668.81;4903594;28;96892;-47
2022/10/21 08:14:39;;;;;;;6.83;4.77;;;;;;;15.28;66.46;100667.25;4902479;28;97108;-46
2022/10/21 08:17:04;;;;;;;17.30;5.00;;;;;;;15.34;66.52;100673.44;4904356;28;97223;-48
2022/10/21 08:19:30;;;;;;;5.53;4.93;;;;;;;15.40;66.51;100667.81;4899848;28;97840;-45
2022/10/21 08:21:57;;;;;;;10.60;5.27;;;;;;;15.47;66.38;100661.72;4902573;28;96921;-48
2022/10/21 08:24:22;;;;;;;5.93;5.40;;;;;;;15.50;66.62;100653.09;4903206;28;97406;-46
2022/10/21 08:26:48;;;;;;;8.30;5.40;;;;;;;15.53;66.61;100654.81;4902238;28;97555;-47
2022/10/21 08:29:13;;;;;;;7.30;5.00;;;;;;;15.58;66.64;100656.00;4904741;28;97595;-46
2022/10/21 08:31:39;;;;;;;6.57;5.07;;;;;;;15.63;66.67;100669.81;4904606;28;97109;-47
2022/10/21 08:34:04;;;;;;;5.60;5.10;;;;;;;15.69;66.72;100658.59;4902298;28;97048;-48
2022/10/21 08:36:30;;;;;;;6.00;4.53;;;;;;;15.73;66.71;100659.81;4902538;28;97737;-48
2022/10/21 08:38:57;;;;;;;6.37;4.97;;;;;;;15.81;66.70;100650.88;4902947;28;97223;-47
2022/10/21 08:41:28;;;;;;;5.97;4.60;;;;;;;15.88;66.82;100659.31;4903174;28;96820;-46
2022/10/21 08:44:14;;;;;;;6.97;4.93;;;;;;;15.95;67.07;100657.94;4901242;28;96892;-46
2022/10/21 08:46:46;;;;;;;5.50;4.97;;;;;;;16.00;66.72;100652.31;4898065;28;97455;-47
2022/10/21 08:49:19;;;;;;;6.20;5.37;;;;;;;16.07;66.73;100648.16;4904073;28;96862;-46
2022/10/21 08:51:56;;;;;;;5.27;4.77;;;;;;;16.13;67.03;100637.72;4902228;28;97307;-46
2022/10/21 08:54:30;;;;;;;5.77;4.23;;;;;;;16.20;66.80;100640.63;4902130;28;97488;-46
2022/10/21 08:56:59;;;;;;;5.50;4.93;;;;;;;16.28;66.76;100637.94;4902613;28;102579;-46
2022/10/21 08:59:25;;;;;;;5.77;5.27;;;;;;;16.35;66.77;100643.63;4902551;28;100283;-46
2022/10/21 09:02:12;;;;;;;6.93;5.80;;;;;;;16.45;67.48;100646.72;4901828;28;97362;-46
2022/10/21 09:04:49;;;;;;;6.50;5.83;;;;;;;16.55;66.93;100649.88;4901110;28;97930;-46
2022/10/21 09:07:57;;;;;;;8.23;5.83;;;;;;;16.60;67.63;100646.25;4900415;28;97674;-47
2022/10/21 09:10:31;;;;;;;8.30;5.23;;;;;;;16.68;67.15;100652.66;4904128;28;101680;-46
2022/10/21 09:13:03;;;;;;;5.87;5.27;;;;;;;16.75;67.15;100652.75;4900655;28;99956;-46
2022/10/21 09:15:37;;;;;;;5.77;5.23;;;;;;;16.82;66.87;100659.72;4910302;28;98499;-46
2022/10/21 09:18:25;;;;;;;7.27;6.27;;;;;;;16.89;67.46;100651.44;4902359;28;97208;-46
2022/10/21 09:21:38;;;;;;;5.97;5.40;;;;;;;16.96;67.85;100650.06;4901281;28;101269;-46
2022/10/21 09:24:10;;;;;;;5.70;5.20;;;;;;;17.03;66.89;100643.84;4860219;28;98312;-46
2022/10/21 09:26:42;;;;;;;4.97;4.57;;;;;;;17.11;66.91;100645.44;4900002;28;97052;-46
2022/10/21 09:29:14;;;;;;;9.70;5.60;;;;;;;17.18;67.03;100646.81;4902580;28;96744;-46
2022/10/21 09:31:39;;;;;;;9.27;5.83;;;;;;;17.23;67.07;100649.47;4901014;28;98907;-46
2022/10/21 09:34:14;;;;;;;7.03;5.63;;;;;;;17.29;66.92;100640.25;4906314;28;96781;-47
2022/10/21 09:36:46;;;;;;;7.33;6.27;;;;;;;17.36;67.06;100642.38;4905356;28;96992;-46
2022/10/21 09:39:32;;;;;;;6.73;5.97;;;;;;;17.43;67.65;100647.28;4905408;28;96945;-46
2022/10/21 09:41:58;;;;;;;11.90;5.50;;;;;;;17.49;66.99;100648.66;4907031;28;97179;-46
2022/10/21 09:44:24;;;;;;;7.67;5.83;;;;;;;17.56;66.95;100648.00;4905016;28;97547;-46
2022/10/21 09:46:52;;;;;;;7.03;5.90;;;;;;;17.63;66.97;100646.56;4903838;28;96784;-46
2022/10/21 09:49:30;;;;;;;6.20;5.60;;;;;;;17.66;67.29;100632.34;4904947;28;96993;-46
2022/10/21 09:52:00;;;;;;;8.63;6.40;;;;;;;17.74;67.40;100647.06;4904132;28;98480;-46
2022/10/21 09:54:31;;;;;;;6.47;5.77;;;;;;;17.79;67.24;100648.97;4903836;28;97126;-47
2022/10/21 09:57:09;;;;;;;7.90;5.93;;;;;;;17.86;67.49;100645.53;4906132;28;96790;-46
2022/10/21 09:59:36;;;;;;;5.60;5.10;;;;;;;17.92;67.34;100643.34;4907424;28;99930;-46
2022/10/21 10:02:14;;;;;;;7.20;6.50;;;;;;;18.01;67.76;100655.28;4904358;28;98189;-46
2022/10/21 10:04:39;;;;;;;6.93;5.80;;;;;;;18.06;67.21;100640.50;4905514;28;96725;-46
2022/10/21 10:07:26;;;;;;;6.57;5.90;;;;;;;18.12;67.65;100646.66;4907906;28;105214;-46
2022/10/21 10:09:52;;;;;;;5.70;5.20;;;;;;;18.16;67.28;100647.81;4908001;28;97281;-46
2022/10/21 10:12:22;;;;;;;10.17;5.70;;;;;;;18.21;67.34;100635.03;4902820;28;101439;-46
2022/10/21 10:14:48;;;;;;;8.37;5.20;;;;;;;18.27;67.33;100632.84;4904443;28;97126;-46
2022/10/21 10:17:22;;;;;;;5.60;4.50;;;;;;;18.32;67.49;100637.53;4908800;28;97047;-47
2022/10/21 10:20:03;;;;;;;6.90;5.10;;;;;;;18.36;67.78;100640.72;4900737;28;96936;-46
2022/10/21 10:22:30;;;;;;;5.93;4.43;;;;;;;18.41;67.40;100637.03;4904535;28;98305;-47
2022/10/21 10:25:20;;;;;;;5.37;4.87;;;;;;;18.48;67.78;100628.75;4904865;28;96899;-46
2022/10/21 10:27:52;;;;;;;5.27;4.60;;;;;;;18.56;67.43;100631.59;4902314;28;97439;-46
2022/10/21 10:30:18;;;;;;;6.20;5.17;;;;;;;18.60;67.34;100655.03;4904511;28;100729;-46
2022/10/21 10:32:45;;;;;;;4.83;4.23;;;;;;;18.68;67.27;100629.97;4905521;28;97219;-47
2022/10/21 10:35:30;;;;;;;6.30;5.80;;;;;;;18.75;68.15;100648.03;4906368;28;96930;-47
2022/10/21 10:37:58;;;;;;;5.50;4.60;;;;;;;18.79;67.43;100637.28;4902311;28;97030;-47
2022/10/21 10:40:31;;;;;;;6.10;4.93;;;;;;;18.85;67.60;100638.59;4903857;28;101943;-46
2022/10/21 10:43:26;;;;;;;4.47;3.60;;;;;;;18.90;67.77;100637.72;4906815;28;103165;-46
2022/10/21 10:46:02;;;;;;;5.40;4.53;;;;;;;18.95;67.71;100628.44;4903908;28;97332;-47
2022/10/21 10:48:48;;;;;;;6.40;4.33;;;;;;;19.00;68.00;100624.00;4905233;28;97190;-47
2022/10/21 10:51:32;;;;;;;5.00;4.37;;;;;;;19.05;67.88;100632.19;4897758;28;100427;-47
2022/10/21 10:54:26;;;;;;;4.60;4.20;;;;;;;19.08;67.85;100619.94;4902986;28;96880;-47
2022/10/21 10:56:56;;;;;;;6.97;4.33;;;;;;;19.14;67.34;100617.72;4902089;28;97991;-47
2022/10/21 10:59:42;;;;;;;6.80;4.90;;;;;;;19.20;67.97;100620.34;4905192;28;97187;-47
2022/10/21 11:02:13;;;;;;;4.90;4.40;;;;;;;19.23;67.51;100620.00;4904938;28;98906;-47
2022/10/21 11:04:57;;;;;;;5.00;3.90;;;;;;;19.30;67.97;100624.84;4902256;28;97693;-47
2022/10/21 11:07:30;;;;;;;10.60;4.50;;;;;;;19.33;67.66;100618.16;4903200;28;96676;-47
2022/10/21 11:10:12;;;;;;;5.53;4.20;;;;;;;19.39;67.96;100620.81;4905182;28;97385;-47
2022/10/21 11:12:37;;;;;;;5.50;4.67;;;;;;;19.42;67.43;100622.47;4904371;28;97670;-47
2022/10/21 11:15:05;;;;;;;7.20;4.37;;;;;;;19.44;67.54;100617.84;4903248;28;97004;-46
2022/10/21 11:17:42;;;;;;;4.90;3.90;;;;;;;19.49;67.75;100610.59;4895196;28;97185;-49
2022/10/21 11:20:22;;;;;;;9.13;4.60;;;;;;;19.54;67.80;100614.50;4902859;28;97651;-47
2022/10/21 11:23:02;;;;;;;4.80;4.03;;;;;;;19.55;67.99;100613.94;4902034;28;97060;-46
2022/10/21 11:25:41;;;;;;;9.83;4.47;;;;;;;19.58;67.50;100620.47;4902899;28;102083;-46
2022/10/21 11:28:29;;;;;;;5.40;4.13;;;;;;;19.59;68.01;100608.75;4900943;28;97217;-47
2022/10/21 11:31:20;;;;;;;6.50;4.70;;;;;;;19.62;67.69;100609.69;4904357;28;97237;-47
2022/10/21 11:33:54;;;;;;;4.60;4.17;;;;;;;19.62;67.67;100609.69;4904658;28;100523;-47
2022/10/21 11:36:39;;;;;;;7.43;4.80;;;;;;;19.66;68.03;100616.38;4901967;28;97498;-47